Snowflake, Arizona
Current Conditions -  °F | °C
As of 7:35 AM on Tuesday 27 Jan 2015 (Local Time) from KSOW Reporting Station
Clear Clear  
Wind Chill: 27°   Ceiling: Unl
Heat Index: 32°   Visibility: 10mi
Dew Point: 30°   Wind: 5mph
Humidity: 93%   Direction: 160°SSE
Pressure: 30.37"   Gusts: NA
Location:  34.51°N, 110.08°W
Report Text: KSOW 271435Z AUTO 16004KT 10SM CLR 00/M01 A3037 RMK AO2
Loading
Personal Weather Stations






























Interactive Weather Map New forecast layout! Learn more

10-Day Weather Forecast

Advertisements
Track Severe Weather on mobile